CheckWX is a tool to help pilots better visualize weather data.  It is not intended as a substitute for an official pre-flight weather briefing.

05:49:55 UTC

CYZP TAF
Sandspit Airport
Sandspit, Canada
TAF CYZP 200038Z 2001/2013 27015G25KT P6SM SCT025 BKN040 TEMPO 2001/2013 5SM -SHRA BR FEW012 BKN020 RMK FCST BASED ON AUTO OBS. NXT FCST BY 200700Z

Feb-20@
01:00 UTC

Feb-20 @ 01:00 UTC

Feb-20@
13:00 UTC

Feb-20 @ 13:00 UTC

TAF CYZP 200038Z 2001/2013 27015G25KT P6SM SCT025 BKN040
Wind
  • 270° at 15 KTS
  • {Gusting to 25 KTS
Visibility
10,000+ meters
Cloud Levels
  • Scattered at 2,500' AGL
  • Broken at 4,000' AGL

Feb-20@
01:00 UTC

Feb-20 @ 01:00 UTC

Feb-20@
13:00 UTC

Feb-20 @ 13:00 UTC

TEMPO 2001/2013 5SM -SHRA BR FEW012 BKN020 RMK FCST BASED ON AUTO OBS. NXT FCST BY 200700Z

Temporary

TemporaryChanges expected for less than half the time period

Visibility
8,047 meters
Conditions
Light Rain, Mist
Cloud Levels
  • Few at 1,200' AGL
  • Broken at 2,000' AGL